Terminal Aerodrome Forecast
Issued by NWS

Home | Current Version | Previous Version | Text Only | Print | Product List | Glossary On
Versions: 1 2 3 4 5 6 7 8 9 10 11 12 13
000
FTUS46 KPDT 161100
TAFBDN
TAF
KBDN 161120Z 1612/1712 VRB04KT P6SM BKN090
     FM162100 32008KT P6SM BKN040 OVC060
     FM170400 VRB05KT P6SM SCT060 BKN080=

USA.gov is the U.S. government's official web portal to all federal, state and local government web resources and services.